Time;durP1;ratioP1;P1;durP2;ratioP2;P2;SDS_P1;SDS_P2;PMS_P1;PMS_P2;Temp;Humidity;BMP_temperature;BMP_pressure;BME280_temperature;BME280_humidity;BME280_pressure;Samples;Min_cycle;Max_cycle;Signal;HPM_P1;HPM_P2
2022/07/21 00:00:20;;;;;;;0.00;0.00;;;;;;;17.74;82.03;98414.34;5098148;28;20443;-61
2022/07/21 00:02:49;;;;;;;0.00;0.00;;;;;;;17.70;82.27;98410.25;5098190;28;20044;-60
2022/07/21 00:05:17;;;;;;;0.00;0.00;;;;;;;17.68;82.26;98417.50;5097990;28;20050;-60
2022/07/21 00:07:46;;;;;;;0.00;0.00;;;;;;;17.72;82.16;98424.25;5098602;28;20374;-59
2022/07/21 00:10:14;;;;;;;0.00;0.00;;;;;;;17.73;82.35;98420.59;5098062;28;20330;-61
2022/07/21 00:12:42;;;;;;;0.00;0.00;;;;;;;17.75;82.32;98418.66;5097905;28;20048;-60
2022/07/21 00:15:12;;;;;;;0.00;0.00;;;;;;;17.77;82.06;98422.06;5097738;28;20156;-60
2022/07/21 00:17:39;;;;;;;0.00;0.00;;;;;;;17.74;82.41;98420.47;5097685;28;20381;-60
2022/07/21 00:20:09;;;;;;;0.00;0.00;;;;;;;17.72;82.60;98418.13;5097797;28;20051;-60
2022/07/21 00:22:37;;;;;;;0.00;0.00;;;;;;;17.67;83.23;98421.16;5097882;28;20040;-60
2022/07/21 00:25:08;;;;;;;0.00;0.00;;;;;;;17.66;83.50;98422.97;5097025;28;20040;-60
2022/07/21 00:27:36;;;;;;;0.00;0.00;;;;;;;17.66;83.45;98409.66;5097473;28;20122;-60
2022/07/21 00:30:05;;;;;;;0.00;0.00;;;;;;;17.65;83.80;98407.97;5096482;28;20032;-59
2022/07/21 00:32:34;;;;;;;0.00;0.00;;;;;;;17.66;84.16;98411.50;5096510;28;20437;-60
2022/07/21 00:35:02;;;;;;;0.00;0.00;;;;;;;17.64;84.31;98416.97;5097666;28;20123;-60
2022/07/21 00:37:29;;;;;;;0.00;0.00;;;;;;;17.63;84.35;98415.25;5096031;28;20040;-61
2022/07/21 00:39:57;;;;;;;0.00;0.00;;;;;;;17.57;84.83;98422.94;5074951;28;20098;-60
2022/07/21 00:42:28;;;;;;;0.00;0.00;;;;;;;17.47;85.69;98428.19;5076581;28;20052;-60
2022/07/21 00:44:56;;;;;;;0.00;0.00;;;;;;;17.49;85.83;98428.91;5076261;28;20132;-60
2022/07/21 00:47:28;;;;;;;0.00;0.00;;;;;;;17.51;85.97;98420.78;5075983;28;20447;-60
2022/07/21 00:49:57;;;;;;;0.00;0.00;;;;;;;17.48;85.96;98418.41;5076477;28;20127;-60
2022/07/21 00:52:25;;;;;;;0.00;0.00;;;;;;;17.39;86.63;98416.53;5076032;28;20072;-59
2022/07/21 00:54:53;;;;;;;0.00;0.00;;;;;;;17.34;87.15;98416.94;5075956;28;20334;-60
2022/07/21 00:57:23;;;;;;;0.00;0.00;;;;;;;17.36;87.08;98422.94;5075899;28;20044;-61
2022/07/21 00:59:52;;;;;;;0.00;0.00;;;;;;;17.36;87.21;98419.44;5075886;28;20072;-59
2022/07/21 01:02:20;;;;;;;0.00;0.00;;;;;;;17.31;87.07;98417.19;5075909;28;20048;-60
2022/07/21 01:04:47;;;;;;;0.00;0.00;;;;;;;17.34;86.96;98413.44;5075811;28;20055;-62
2022/07/21 01:07:19;;;;;;;0.00;0.00;;;;;;;17.33;87.14;98414.41;5075762;28;20053;-62
2022/07/21 01:09:47;;;;;;;0.00;0.00;;;;;;;17.27;87.39;98417.56;5075747;28;20048;-62
2022/07/21 01:12:15;;;;;;;0.00;0.00;;;;;;;17.20;88.12;98424.38;5075660;28;20128;-63
2022/07/21 01:14:46;;;;;;;0.00;0.00;;;;;;;17.15;88.43;98426.59;5075798;28;20044;-62
2022/07/21 01:17:20;;;;;;;0.00;0.00;;;;;;;17.07;89.00;98423.75;5075729;28;20048;-62
2022/07/21 01:19:49;;;;;;;0.00;0.00;;;;;;;17.01;89.50;98424.25;5076361;28;20143;-63
2022/07/21 01:22:22;;;;;;;0.00;0.00;;;;;;;16.96;89.98;98424.63;5076737;28;20443;-62
2022/07/21 01:24:49;;;;;;;0.00;0.00;;;;;;;16.93;90.28;98430.16;5076823;28;20106;-63
2022/07/21 01:27:20;;;;;;;0.00;0.00;;;;;;;16.86;90.73;98426.31;5076303;28;20155;-62
2022/07/21 01:29:49;;;;;;;0.00;0.00;;;;;;;16.87;90.81;98425.38;5076521;28;20044;-62
2022/07/21 01:32:17;;;;;;;0.00;0.00;;;;;;;16.85;91.07;98431.81;5076543;28;20052;-63
2022/07/21 01:34:44;;;;;;;0.00;0.00;;;;;;;16.83;91.32;98437.25;5076493;28;20097;-62
2022/07/21 01:37:14;;;;;;;0.00;0.00;;;;;;;16.83;91.25;98425.75;5078241;28;20040;-62
2022/07/21 01:42:30;;;;;;;0.00;0.00;;;;;;;16.77;90.97;98420.94;5080753;28;20055;-63
2022/07/21 01:44:59;;;;;;;0.00;0.00;;;;;;;16.80;91.10;98424.19;5080357;28;20052;-62
2022/07/21 01:47:27;;;;;;;0.00;0.00;;;;;;;16.83;91.12;98423.09;5080315;28;20059;-62
2022/07/21 01:49:56;;;;;;;0.00;0.00;;;;;;;16.82;91.38;98421.41;5080722;28;20435;-62
2022/07/21 01:52:33;;;;;;;0.00;0.00;;;;;;;16.78;91.24;98415.50;5080524;28;20032;-62
2022/07/21 01:55:05;;;;;;;0.00;0.00;;;;;;;16.74;91.54;98416.72;5080226;28;20072;-63
2022/07/21 01:57:34;;;;;;;0.00;0.00;;;;;;;16.67;91.46;98438.63;5080534;28;20044;-62
2022/07/21 02:00:04;;;;;;;0.00;0.00;;;;;;;16.55;91.71;98444.94;5080128;28;20053;-62
2022/07/21 02:02:36;;;;;;;;;;;;;;;16.70;90.90;98438.38;5080404;28;20145;-63
2022/07/21 02:05:05;;;;;;;0.00;0.00;;;;;;;16.71;89.94;98442.72;5079806;28;20361;-63
2022/07/21 02:07:33;;;;;;;0.00;0.00;;;;;;;16.65;90.58;98437.91;5080018;28;20036;-63
2022/07/21 02:10:02;;;;;;;0.00;0.00;;;;;;;16.54;90.97;98432.63;5080150;28;20045;-62
2022/07/21 02:12:29;;;;;;;0.00;0.00;;;;;;;16.51;91.19;98422.25;5079970;28;20079;-62
2022/07/21 02:14:57;;;;;;;0.00;0.00;;;;;;;16.48;91.26;98431.31;5080161;28;20415;-62
2022/07/21 02:17:25;;;;;;;0.00;0.00;;;;;;;16.42;91.55;98421.22;5079830;28;20044;-63
2022/07/21 02:19:52;;;;;;;0.00;0.00;;;;;;;16.33;92.23;98426.41;5079968;28;20335;-63
2022/07/21 02:22:20;;;;;;;0.00;0.00;;;;;;;16.28;92.80;98426.78;5079759;28;20094;-63
2022/07/21 02:24:47;;;;;;;0.00;0.00;;;;;;;16.22;93.50;98426.41;5079655;28;20102;-63
2022/07/21 02:27:16;;;;;;;0.00;0.00;;;;;;;16.26;93.89;98430.56;5079562;28;20072;-63
2022/07/21 02:29:43;;;;;;;0.00;0.00;;;;;;;16.30;93.39;98432.81;5079591;28;20123;-63
2022/07/21 02:32:14;;;;;;;0.00;0.00;;;;;;;16.25;93.31;98427.03;5079447;28;20070;-64
2022/07/21 02:34:41;;;;;;;0.00;0.00;;;;;;;16.20;93.90;98429.22;5079534;28;20048;-63
2022/07/21 02:37:09;;;;;;;0.00;0.00;;;;;;;16.25;93.60;98421.72;5079299;28;20434;-63
2022/07/21 02:39:36;;;;;;;0.00;0.00;;;;;;;16.36;93.26;98419.03;5079484;28;20127;-63
2022/07/21 02:42:05;;;;;;;0.00;0.00;;;;;;;16.40;92.87;98416.97;5079407;28;20151;-62
2022/07/21 02:44:35;;;;;;;0.00;0.00;;;;;;;16.39;92.54;98418.81;5061785;28;20443;-63
2022/07/21 02:47:06;;;;;;;0.00;0.00;;;;;;;16.44;91.91;98408.63;5079007;28;20079;-62
2022/07/21 02:49:34;;;;;;;0.00;0.00;;;;;;;16.51;91.46;98406.31;5078993;28;20036;-63
2022/07/21 02:52:01;;;;;;;0.00;0.00;;;;;;;16.51;90.99;98406.31;5079585;28;20335;-62
2022/07/21 02:54:29;;;;;;;0.00;0.00;;;;;;;16.55;90.78;98407.75;5079302;28;20127;-62
2022/07/21 02:56:56;;;;;;;0.00;0.00;;;;;;;16.57;90.64;98411.13;5079052;28;20348;-63
2022/07/21 02:59:27;;;;;;;0.00;0.00;;;;;;;16.55;90.98;98407.75;5078953;28;20037;-63
2022/07/21 03:02:03;;;;;;;0.00;0.00;;;;;;;16.57;90.88;98405.81;5078648;28;20054;-63
2022/07/21 03:04:30;;;;;;;0.00;0.00;;;;;;;16.57;91.40;98416.44;5079244;28;20040;-62
2022/07/21 03:06:58;;;;;;;0.00;0.00;;;;;;;16.65;91.16;98404.22;5078775;28;20051;-63
2022/07/21 03:09:32;;;;;;;0.00;0.00;;;;;;;16.77;90.98;98413.81;5079006;28;20445;-62
2022/07/21 03:12:04;;;;;;;0.00;0.00;;;;;;;16.84;89.80;98406.16;5078693;28;20064;-64
2022/07/21 03:14:31;;;;;;;0.00;0.00;;;;;;;16.93;89.88;98402.75;5078759;28;20060;-63
2022/07/21 03:17:02;;;;;;;0.00;0.00;;;;;;;17.05;89.06;98407.06;5078995;28;20037;-63
2022/07/21 03:19:31;;;;;;;0.00;0.00;;;;;;;17.12;88.51;98405.59;5078891;28;20052;-63
2022/07/21 03:21:58;;;;;;;0.00;0.00;;;;;;;17.24;88.07;98408.06;5044466;28;20044;-63
2022/07/21 03:24:26;;;;;;;0.00;0.00;;;;;;;17.39;87.36;98408.53;5079028;28;20044;-63
2022/07/21 03:26:54;;;;;;;0.00;0.00;;;;;;;17.42;87.13;98400.31;5078426;28;20056;-63
2022/07/21 03:29:21;;;;;;;0.00;0.00;;;;;;;17.48;86.89;98400.59;5078280;28;20339;-63
2022/07/21 03:31:49;;;;;;;0.00;0.00;;;;;;;17.50;87.00;98405.81;5078565;28;20094;-63
2022/07/21 03:34:16;;;;;;;0.00;0.00;;;;;;;17.49;86.90;98406.78;5078443;28;20048;-63
2022/07/21 03:36:48;;;;;;;0.00;0.00;;;;;;;17.50;86.83;98411.97;5078392;28;20063;-63
2022/07/21 03:39:15;;;;;;;0.00;0.00;;;;;;;17.56;86.40;98411.44;5078382;28;20066;-63
2022/07/21 03:41:43;;;;;;;0.00;0.00;;;;;;;17.63;86.00;98414.44;5078173;28;20440;-62
2022/07/21 03:44:11;;;;;;;0.00;0.00;;;;;;;17.69;85.75;98413.88;5078229;28;20047;-64
2022/07/21 03:46:38;;;;;;;0.00;0.00;;;;;;;17.80;85.24;98408.50;5078077;28;20053;-63
2022/07/21 03:49:06;;;;;;;0.00;0.00;;;;;;;17.99;84.61;98410.38;5077987;28;20032;-62
2022/07/21 03:51:33;;;;;;;0.00;0.00;;;;;;;18.20;84.05;98400.50;5077787;28;20499;-63
2022/07/21 03:54:02;;;;;;;0.00;0.00;;;;;;;18.54;83.06;98401.81;5077970;28;20122;-63
2022/07/21 03:56:30;;;;;;;0.00;0.00;;;;;;;18.90;82.63;98396.66;5077862;28;20136;-62
2022/07/21 03:58:58;;;;;;;0.00;0.00;;;;;;;19.03;81.60;98391.88;5077238;28;20420;-62
2022/07/21 04:01:25;;;;;;;0.00;0.00;;;;;;;19.16;81.01;98384.41;5078146;28;20051;-63
2022/07/21 04:03:53;;;;;;;0.00;0.00;;;;;;;19.66;79.65;98380.53;5077797;28;20048;-63
2022/07/21 04:06:20;;;;;;;0.00;0.00;;;;;;;20.21;78.16;98387.59;5077187;28;20098;-62
2022/07/21 04:08:48;;;;;;;0.00;0.00;;;;;;;20.68;76.32;98373.03;5077867;28;20500;-62
2022/07/21 04:11:16;;;;;;;0.00;0.00;;;;;;;21.00;74.67;98377.00;5077671;28;20102;-63
2022/07/21 04:13:44;;;;;;;0.00;0.00;;;;;;;20.94;73.66;98370.44;5077793;28;20059;-62
2022/07/21 04:16:11;;;;;;;0.00;0.00;;;;;;;20.87;73.29;98380.06;5077809;28;20394;-63
2022/07/21 04:18:39;;;;;;;0.00;0.00;;;;;;;20.81;73.32;98377.97;5077777;28;20082;-63
2022/07/21 04:21:07;;;;;;;0.00;0.00;;;;;;;20.78;73.69;98388.16;5077578;28;20127;-64
2022/07/21 04:23:37;;;;;;;0.00;0.00;;;;;;;20.78;73.68;98387.16;5077693;28;20051;-62
2022/07/21 04:26:05;;;;;;;0.00;0.00;;;;;;;20.87;73.54;98392.56;5077305;28;20048;-63
2022/07/21 04:28:34;;;;;;;0.00;0.00;;;;;;;20.93;73.46;98392.00;5077287;28;20110;-63
2022/07/21 04:31:04;;;;;;;0.00;0.00;;;;;;;20.91;73.15;98388.63;5077398;28;20040;-63
2022/07/21 04:33:32;;;;;;;0.00;0.00;;;;;;;20.93;73.00;98392.00;5077255;28;20461;-62
2022/07/21 04:35:59;;;;;;;0.00;0.00;;;;;;;21.12;72.75;98395.34;5077558;28;20037;-62
2022/07/21 04:38:27;;;;;;;0.00;0.00;;;;;;;21.26;72.91;98392.13;5077394;28;20122;-62
2022/07/21 04:40:55;;;;;;;0.00;0.00;;;;;;;21.54;73.23;98395.47;5077116;28;20044;-62
2022/07/21 04:43:22;;;;;;;0.00;0.00;;;;;;;22.00;71.75;98392.41;5077249;28;20068;-63
2022/07/21 04:45:51;;;;;;;0.00;0.00;;;;;;;22.37;70.52;98382.16;5077107;28;20055;-62
2022/07/21 04:48:19;;;;;;;0.00;0.00;;;;;;;22.69;69.43;98396.47;5076857;28;20128;-62
2022/07/21 04:50:46;;;;;;;0.00;0.00;;;;;;;22.86;68.27;98394.66;5077127;28;20063;-62
2022/07/21 04:53:13;;;;;;;0.00;0.00;;;;;;;22.98;67.69;98394.16;5077141;28;20064;-63
2022/07/21 04:55:41;;;;;;;0.00;0.00;;;;;;;22.98;67.31;98390.66;5077005;28;20127;-63
2022/07/21 04:58:08;;;;;;;0.00;0.00;;;;;;;22.95;67.45;98388.31;5076842;28;20441;-63
2022/07/21 05:00:36;;;;;;;0.00;0.00;;;;;;;22.81;67.41;98394.31;5076893;28;20044;-63
2022/07/21 05:03:20;;;;;;;0.00;0.00;;;;;;;22.67;67.28;98394.97;5076874;28;20072;-62
2022/07/21 05:05:48;;;;;;;0.00;0.00;;;;;;;22.58;67.51;98393.28;5076756;28;20048;-62
2022/07/21 05:08:18;;;;;;;0.00;0.00;;;;;;;22.50;68.21;98388.72;5076841;28;20082;-62
2022/07/21 05:10:46;;;;;;;0.00;0.00;;;;;;;22.44;68.62;98389.41;5076621;28;20136;-62
2022/07/21 05:13:13;;;;;;;0.00;0.00;;;;;;;22.47;68.78;98388.25;5076658;28;20044;-62
2022/07/21 05:15:42;;;;;;;0.00;0.00;;;;;;;22.51;69.04;98386.91;5076870;28;20055;-62
2022/07/21 05:18:11;;;;;;;0.00;0.00;;;;;;;22.55;69.47;98390.94;5077068;28;20047;-62
2022/07/21 05:20:40;;;;;;;0.00;0.00;;;;;;;22.53;69.26;98390.28;5076667;28;20052;-63
2022/07/21 05:23:08;;;;;;;0.00;0.00;;;;;;;22.41;69.81;98400.47;5076778;28;20045;-63
2022/07/21 05:25:37;;;;;;;0.00;0.00;;;;;;;22.43;70.48;98392.25;5076537;28;20109;-63
2022/07/21 05:28:06;;;;;;;0.00;0.00;;;;;;;22.49;70.10;98389.75;5076327;28;20056;-62
2022/07/21 05:30:35;;;;;;;0.00;0.00;;;;;;;22.48;69.75;98387.22;5076792;28;20324;-62
2022/07/21 05:33:02;;;;;;;0.00;0.00;;;;;;;22.50;70.09;98388.72;5076546;28;20040;-61
2022/07/21 05:35:30;;;;;;;0.00;0.00;;;;;;;22.50;70.03;98394.09;5076517;28;20060;-63
2022/07/21 05:38:00;;;;;;;0.00;0.00;;;;;;;22.53;69.58;98398.31;5076697;28;20128;-63
2022/07/21 05:40:27;;;;;;;0.00;0.00;;;;;;;22.55;69.25;98396.28;5076384;28;20057;-62
2022/07/21 05:42:55;;;;;;;0.00;0.00;;;;;;;22.55;68.69;98404.34;5076499;28;20127;-62
2022/07/21 05:45:22;;;;;;;0.00;0.00;;;;;;;22.52;68.47;98402.84;5076330;28;20428;-63
2022/07/21 05:47:50;;;;;;;0.00;0.00;;;;;;;22.59;68.43;98411.06;5076486;28;20075;-62
2022/07/21 05:50:17;;;;;;;0.00;0.00;;;;;;;22.63;68.68;98405.19;5076299;28;20052;-62
2022/07/21 05:52:45;;;;;;;0.00;0.00;;;;;;;22.72;68.66;98411.44;5076189;28;20055;-62
2022/07/21 05:55:14;;;;;;;0.00;0.00;;;;;;;22.82;68.23;98412.94;5076155;28;20056;-62
2022/07/21 05:57:44;;;;;;;0.00;0.00;;;;;;;22.91;67.99;98419.97;5076528;28;20386;-62
2022/07/21 06:00:13;;;;;;;0.00;0.00;;;;;;;23.04;68.24;98408.78;5076518;28;20418;-62
2022/07/21 06:02:40;;;;;;;0.00;0.00;;;;;;;23.19;67.73;98412.47;5076402;28;20040;-62
2022/07/21 06:05:10;;;;;;;0.00;0.00;;;;;;;23.23;66.81;98406.63;5076429;28;20041;-63
2022/07/21 06:07:38;;;;;;;0.00;0.00;;;;;;;23.29;66.28;98399.72;5076183;28;20064;-62
2022/07/21 06:10:07;;;;;;;0.00;0.00;;;;;;;23.41;65.97;98398.38;5076024;28;20045;-62
2022/07/21 06:12:38;;;;;;;0.00;0.00;;;;;;;23.57;65.48;98398.38;5076602;28;20051;-62
2022/07/21 06:15:06;;;;;;;0.00;0.00;;;;;;;23.69;65.26;98397.00;5057325;28;20368;-63
2022/07/21 06:17:40;;;;;;;0.00;0.00;;;;;;;23.81;64.67;98394.81;5074373;28;20110;-63
2022/07/21 06:20:09;;;;;;;0.00;0.00;;;;;;;23.87;65.25;98394.09;5074303;28;20041;-62
2022/07/21 06:22:37;;;;;;;0.00;0.00;;;;;;;24.00;65.41;98397.91;5075097;28;20040;-63
2022/07/21 06:25:08;;;;;;;0.00;0.00;;;;;;;24.18;65.21;98401.19;5077930;28;20115;-63
2022/07/21 06:27:39;;;;;;;0.00;0.00;;;;;;;24.31;63.43;98401.53;5077886;28;20052;-62
2022/07/21 06:30:09;;;;;;;0.00;0.00;;;;;;;24.42;63.15;98403.81;5079249;28;20044;-63
2022/07/21 06:32:36;;;;;;;0.00;0.00;;;;;;;24.56;62.32;98399.53;5079464;28;20388;-62
2022/07/21 06:35:05;;;;;;;0.00;0.00;;;;;;;24.66;62.43;98400.97;5079446;28;20075;-62
2022/07/21 06:37:32;;;;;;;0.00;0.00;;;;;;;24.77;62.55;98405.94;5083596;28;20047;-62
2022/07/21 06:40:00;;;;;;;0.00;0.00;;;;;;;24.85;62.42;98405.88;5099773;28;20036;-62
2022/07/21 06:42:27;;;;;;;0.00;0.00;;;;;;;24.96;62.32;98410.88;5099730;28;20048;-63
2022/07/21 06:44:56;;;;;;;0.00;0.00;;;;;;;25.08;62.54;98411.31;5099682;28;20051;-63
2022/07/21 06:47:23;;;;;;;0.00;0.00;;;;;;;25.11;61.57;98411.81;5099547;28;20043;-62
2022/07/21 06:49:51;;;;;;;0.00;0.00;;;;;;;25.20;62.06;98410.72;5099513;28;20078;-63
2022/07/21 06:52:19;;;;;;;0.00;0.00;;;;;;;25.34;61.47;98412.63;5100009;28;20044;-63
2022/07/21 06:54:46;;;;;;;0.00;0.00;;;;;;;25.55;61.86;98415.47;5099247;28;20044;-62
2022/07/21 06:57:15;;;;;;;0.00;0.00;;;;;;;25.73;61.83;98413.25;5097950;28;20044;-62
2022/07/21 06:59:43;;;;;;;0.00;0.00;;;;;;;25.78;61.52;98405.47;5098448;28;20414;-63
2022/07/21 07:02:12;;;;;;;0.00;0.00;;;;;;;25.79;61.09;98404.44;5099017;28;20439;-63
2022/07/21 07:04:39;;;;;;;0.00;0.00;;;;;;;25.78;60.60;98410.88;5099022;28;20074;-63
2022/07/21 07:07:07;;;;;;;0.00;0.00;;;;;;;25.78;60.42;98410.88;5097931;28;20075;-62
2022/07/21 07:09:34;;;;;;;0.00;0.00;;;;;;;25.86;60.91;98407.22;5097383;28;20040;-63
2022/07/21 07:12:03;;;;;;;0.00;0.00;;;;;;;25.89;60.82;98413.09;5097419;28;20256;-63
2022/07/21 07:14:31;;;;;;;0.00;0.00;;;;;;;25.93;60.89;98410.84;5097620;28;20040;-63
2022/07/21 07:16:59;;;;;;;0.00;0.00;;;;;;;25.92;60.43;98411.88;5097770;28;20105;-63
2022/07/21 07:19:28;;;;;;;0.00;0.00;;;;;;;25.98;60.67;98422.75;5097775;28;20073;-62
2022/07/21 07:22:00;;;;;;;0.00;0.00;;;;;;;26.08;59.56;98417.09;5098132;28;20055;-63
2022/07/21 07:24:27;;;;;;;0.00;0.00;;;;;;;26.06;59.44;98419.16;5098955;28;20134;-64
2022/07/21 07:26:56;;;;;;;0.00;0.00;;;;;;;26.05;59.38;98418.31;5061039;28;20052;-62
2022/07/21 07:29:24;;;;;;;0.00;0.00;;;;;;;26.08;59.50;98417.94;5098653;28;20365;-62
2022/07/21 07:31:51;;;;;;;0.00;0.00;;;;;;;26.21;59.80;98420.81;5098867;28;20347;-62
2022/07/21 07:34:19;;;;;;;0.00;0.00;;;;;;;26.36;59.06;98426.22;5098756;28;20054;-62
2022/07/21 07:36:48;;;;;;;0.00;0.00;;;;;;;26.43;59.30;98427.97;5098655;28;20044;-62
2022/07/21 07:39:15;;;;;;;0.00;0.00;;;;;;;26.50;58.88;98434.28;5098585;28;20123;-62
2022/07/21 07:41:44;;;;;;;0.00;0.00;;;;;;;26.53;58.87;98435.75;5098532;28;20055;-63
2022/07/21 07:44:12;;;;;;;0.00;0.00;;;;;;;26.61;58.27;98430.28;5098729;28;20048;-62
2022/07/21 07:46:39;;;;;;;0.00;0.00;;;;;;;26.69;58.42;98422.06;5098397;28;20047;-63
2022/07/21 07:49:07;;;;;;;0.00;0.00;;;;;;;26.80;57.90;98424.28;5098335;28;20054;-63
2022/07/21 07:51:34;;;;;;;0.00;0.00;;;;;;;26.91;57.63;98422.94;5098689;28;20066;-62
2022/07/21 07:54:04;;;;;;;0.00;0.00;;;;;;;26.99;57.27;98429.06;5098418;28;20180;-62
2022/07/21 07:56:31;;;;;;;0.00;0.00;;;;;;;27.12;57.97;98420.25;5098416;28;20047;-63
2022/07/21 07:58:59;;;;;;;0.00;0.00;;;;;;;27.14;57.49;98421.75;5098249;28;20097;-63
2022/07/21 08:01:26;;;;;;;0.00;0.00;;;;;;;27.30;58.41;98426.91;5098157;28;20450;-62
2022/07/21 08:03:54;;;;;;;0.00;0.00;;;;;;;27.38;57.71;98417.84;5098158;28;20343;-62
2022/07/21 08:06:25;;;;;;;0.00;0.00;;;;;;;27.43;57.88;98427.03;5097240;28;20380;-62
2022/07/21 08:08:55;;;;;;;0.00;0.00;;;;;;;27.45;57.45;98419.53;5097604;28;20780;-62
2022/07/21 08:11:25;;;;;;;0.00;0.00;;;;;;;27.27;56.82;98415.63;5097246;28;20072;-61
2022/07/21 08:13:52;;;;;;;0.00;0.00;;;;;;;27.37;57.48;98413.47;5096524;28;20032;-62
2022/07/21 08:16:20;;;;;;;0.00;0.00;;;;;;;27.52;56.90;98423.13;5096987;28;20063;-63
2022/07/21 08:18:47;;;;;;;0.00;0.00;;;;;;;27.64;56.23;98412.63;5095994;28;20047;-61
2022/07/21 08:21:15;;;;;;;0.00;0.00;;;;;;;27.73;56.55;98417.69;5104173;28;20040;-63
2022/07/21 08:23:42;;;;;;;0.45;0.00;;;;;;;27.83;54.90;98411.94;5102987;28;20044;-62
2022/07/21 08:26:10;;;;;;;0.00;0.00;;;;;;;27.78;55.48;98415.22;5105047;28;20046;-62
2022/07/21 08:28:40;;;;;;;0.00;0.00;;;;;;;27.82;55.11;98415.69;5118004;28;20092;-62
2022/07/21 08:31:07;;;;;;;0.00;0.00;;;;;;;27.85;55.21;98416.13;5117947;28;20126;-62
2022/07/21 08:33:35;;;;;;;0.00;0.00;;;;;;;27.93;54.67;98417.88;5118264;28;20494;-62
2022/07/21 08:36:05;;;;;;;0.00;0.00;;;;;;;27.92;55.17;98410.78;5117737;28;20055;-62
2022/07/21 08:38:32;;;;;;;0.00;0.00;;;;;;;27.92;54.14;98414.31;5115669;28;20042;-62
2022/07/21 08:41:00;;;;;;;0.00;0.00;;;;;;;28.11;53.63;98418.19;5100198;28;20048;-63
2022/07/21 08:43:28;;;;;;;0.00;0.00;;;;;;;28.30;54.02;98418.28;5108779;28;20344;-62
2022/07/21 08:45:57;;;;;;;0.00;0.00;;;;;;;28.43;53.08;98412.09;5108110;28;20036;-60
2022/07/21 08:48:26;;;;;;;0.00;0.00;;;;;;;28.51;53.09;98403.84;5117142;28;20100;-60
2022/07/21 08:50:54;;;;;;;0.00;0.00;;;;;;;28.51;53.28;98407.34;5117737;28;20400;-60
2022/07/21 08:53:22;;;;;;;0.00;0.00;;;;;;;28.55;52.67;98397.78;5117175;28;20042;-59
2022/07/21 08:55:50;;;;;;;0.00;0.00;;;;;;;28.65;53.14;98394.69;5117525;28;20044;-60
2022/07/21 08:58:18;;;;;;;0.00;0.00;;;;;;;28.78;53.27;98394.75;5117337;28;20043;-59
2022/07/21 09:00:49;;;;;;;0.00;0.00;;;;;;;28.78;53.46;98394.75;5117214;28;20335;-60
2022/07/21 09:03:20;;;;;;;0.00;0.00;;;;;;;28.51;52.50;98391.13;5117472;28;20039;-60
2022/07/21 09:06:06;;;;;;;0.00;0.00;;;;;;;28.76;52.90;98394.09;5117291;28;20051;-60
2022/07/21 09:08:36;;;;;;;0.00;0.00;;;;;;;28.83;51.47;98394.97;5115970;28;20059;-60
2022/07/21 09:11:12;;;;;;;0.00;0.00;;;;;;;28.94;51.85;98394.34;5117428;28;20055;-60
2022/07/21 09:13:40;;;;;;;0.00;0.00;;;;;;;29.01;51.07;98387.94;5117372;28;20340;-60
2022/07/21 09:16:08;;;;;;;0.00;0.00;;;;;;;29.00;51.51;98383.59;5117227;28;20040;-60
2022/07/21 09:18:48;;;;;;;0.00;0.00;;;;;;;29.00;50.14;98394.41;5117473;28;20064;-60
2022/07/21 09:21:18;;;;;;;0.00;0.00;;;;;;;28.68;49.35;98391.59;5116497;28;20040;-60
2022/07/21 09:23:46;;;;;;;0.00;0.00;;;;;;;28.60;49.61;98394.47;5102112;28;20373;-60
2022/07/21 09:26:13;;;;;;;0.00;0.00;;;;;;;28.75;49.92;98387.03;5108120;28;20040;-60
2022/07/21 09:28:42;;;;;;;0.00;0.00;;;;;;;28.94;49.84;98370.84;5110334;28;20035;-60
2022/07/21 09:31:12;;;;;;;0.00;0.00;;;;;;;29.15;50.58;98381.50;5114175;28;20048;-60
2022/07/21 09:33:42;;;;;;;0.00;0.00;;;;;;;29.29;50.55;98382.34;5114109;28;20040;-59
2022/07/21 09:36:12;;;;;;;0.00;0.00;;;;;;;29.30;49.49;98381.28;5099111;28;20050;-60
2022/07/21 09:38:42;;;;;;;0.00;0.00;;;;;;;29.24;49.06;98380.25;5094693;28;20047;-60
2022/07/21 09:41:15;;;;;;;0.00;0.00;;;;;;;29.24;50.28;98380.25;5093786;28;20126;-60
2022/07/21 09:43:44;;;;;;;0.00;0.00;;;;;;;29.45;50.04;98373.78;5095102;28;20040;-60
2022/07/21 09:46:15;;;;;;;0.00;0.00;;;;;;;29.43;49.72;98374.00;5096265;28;20430;-61
2022/07/21 09:48:46;;;;;;;0.00;0.00;;;;;;;29.47;49.81;98377.13;5094520;28;20063;-60
2022/07/21 09:51:24;;;;;;;0.00;0.00;;;;;;;29.54;49.49;98369.03;5093392;28;20036;-60
2022/07/21 09:53:55;;;;;;;0.00;0.00;;;;;;;29.53;50.22;98381.72;5094706;28;20044;-60
2022/07/21 09:56:24;;;;;;;0.00;0.00;;;;;;;29.62;48.88;98375.06;5095177;28;20052;-60
2022/07/21 09:58:54;;;;;;;0.00;0.00;;;;;;;29.63;49.65;98382.16;5098103;28;20058;-60
2022/07/21 10:01:22;;;;;;;0.00;0.00;;;;;;;29.64;49.19;98372.16;5099281;28;20044;-60
2022/07/21 10:03:52;;;;;;;0.00;0.00;;;;;;;29.83;48.71;98368.56;5100726;28;20097;-60
2022/07/21 10:06:24;;;;;;;0.00;0.00;;;;;;;29.87;49.01;98380.66;5100288;28;20044;-60
2022/07/21 10:08:53;;;;;;;0.00;0.00;;;;;;;29.78;48.49;98381.91;5100441;28;20489;-60
2022/07/21 10:11:20;;;;;;;0.00;0.00;;;;;;;29.84;48.25;98379.19;5100116;28;20103;-60
2022/07/21 10:13:49;;;;;;;0.00;0.00;;;;;;;29.98;47.78;98374.56;5105587;28;20058;-60
2022/07/21 10:16:16;;;;;;;0.00;0.00;;;;;;;30.15;47.34;98382.06;5100079;28;20401;-59
2022/07/21 10:18:57;;;;;;;0.00;0.00;;;;;;;30.26;48.01;98381.41;5100243;28;20040;-60
2022/07/21 10:21:37;;;;;;;0.00;0.00;;;;;;;30.38;47.09;98382.38;5100173;28;20081;-60
2022/07/21 10:24:05;;;;;;;0.00;0.00;;;;;;;30.49;46.65;98379.00;5100108;28;20320;-60
2022/07/21 10:26:33;;;;;;;0.00;0.00;;;;;;;30.52;45.97;98377.75;5099441;28;20048;-60
2022/07/21 10:29:01;;;;;;;0.00;0.00;;;;;;;30.59;44.86;98375.84;5107475;28;20050;-59
2022/07/21 10:31:29;;;;;;;0.00;0.00;;;;;;;30.52;46.59;98370.44;5110654;28;20040;-60
2022/07/21 10:34:04;;;;;;;0.00;0.00;;;;;;;30.54;46.36;98365.66;5106378;28;20036;-59
2022/07/21 10:36:55;;;;;;;0.00;0.00;;;;;;;30.56;44.74;98363.53;5105150;28;20349;-61
2022/07/21 10:39:26;;;;;;;0.00;0.00;;;;;;;30.36;45.33;98367.38;5095142;28;20071;-60
2022/07/21 10:42:01;;;;;;;0.00;0.00;;;;;;;30.37;44.87;98364.44;5119749;28;20132;-60
2022/07/21 10:44:44;;;;;;;0.00;0.00;;;;;;;30.40;45.79;98355.03;5119911;28;20043;-60
2022/07/21 10:47:13;;;;;;;0.00;0.00;;;;;;;30.50;44.80;98366.25;5119394;28;20067;-60
2022/07/21 10:49:56;;;;;;;0.00;0.00;;;;;;;30.59;45.22;98351.41;5119785;28;20040;-60
2022/07/21 10:53:05;;;;;;;0.00;0.00;;;;;;;30.59;45.41;98356.81;5119852;28;20126;-59
2022/07/21 10:55:37;;;;;;;0.00;0.00;;;;;;;30.45;44.65;98355.22;5118774;28;20069;-60
2022/07/21 10:58:19;;;;;;;0.00;0.00;;;;;;;30.50;43.84;98350.81;5120268;28;20044;-61
2022/07/21 11:00:48;;;;;;;;;;;;;;;30.64;43.15;98351.59;5120150;28;20051;-60
2022/07/21 11:03:19;;;;;;;0.00;0.00;;;;;;;30.58;42.13;98355.16;5119091;28;19923;-60
2022/07/21 11:06:14;;;;;;;0.00;0.00;;;;;;;30.65;42.43;98355.97;5119454;28;20044;-59
2022/07/21 11:08:43;;;;;;;0.00;0.00;;;;;;;30.85;43.28;98346.66;5109755;28;20055;-60
2022/07/21 11:11:13;;;;;;;0.00;0.00;;;;;;;30.98;40.71;98354.72;5098801;28;20044;-60
2022/07/21 11:14:05;;;;;;;0.00;0.00;;;;;;;30.98;42.62;98352.00;5097982;28;20331;-60
2022/07/21 11:16:52;;;;;;;;;;;;;;;30.93;42.43;98348.28;5097797;28;20432;-60
2022/07/21 11:19:35;;;;;;;0.00;0.00;;;;;;;30.68;42.71;98355.53;5097177;28;20279;-61
2022/07/21 11:22:06;;;;;;;0.00;0.00;;;;;;;30.67;42.75;98346.53;5098117;28;20055;-61
2022/07/21 11:24:34;;;;;;;0.00;0.00;;;;;;;30.73;43.43;98345.69;5098435;28;20104;-60
2022/07/21 11:27:04;;;;;;;0.00;0.00;;;;;;;30.92;44.17;98342.00;5098296;28;20052;-60
2022/07/21 11:29:32;;;;;;;0.00;0.00;;;;;;;30.97;42.38;98338.63;5098079;28;20044;-60
2022/07/21 11:32:02;;;;;;;0.00;0.00;;;;;;;30.94;43.78;98348.06;5096528;28;20050;-61
2022/07/21 11:34:45;;;;;;;0.00;0.00;;;;;;;30.99;43.14;98341.94;5096977;28;20056;-60
2022/07/21 11:37:16;;;;;;;0.00;0.00;;;;;;;31.02;43.88;98345.06;5097303;28;20040;-60
2022/07/21 11:39:44;;;;;;;0.00;0.00;;;;;;;31.10;43.55;98333.94;5097966;28;20050;-60
2022/07/21 11:42:15;;;;;;;0.00;0.00;;;;;;;31.06;43.45;98345.47;5097937;28;20047;-59
2022/07/21 11:44:43;;;;;;;0.00;0.00;;;;;;;31.06;43.07;98338.16;5080401;28;20048;-58
2022/07/21 11:47:13;;;;;;;0.00;0.00;;;;;;;31.01;44.11;98340.66;5098294;28;20070;-59